createdAt,value
2023-03-13T00:03:06.300Z,17.25
2023-03-13T00:09:24.539Z,14.05
2023-03-13T00:15:08.316Z,10.43
2023-03-13T00:25:28.660Z,10.90
2023-03-13T00:27:55.459Z,9.82
2023-03-13T00:30:27.617Z,11.60
2023-03-13T00:33:25.992Z,14.73
2023-03-13T00:43:34.695Z,6.93
2023-03-13T00:46:02.102Z,8.88
2023-03-13T00:48:31.262Z,6.28
2023-03-13T00:56:03.767Z,10.02
2023-03-13T01:09:16.709Z,20.65
2023-03-13T01:11:44.744Z,21.38
2023-03-13T01:14:19.907Z,21.85
2023-03-13T01:16:46.981Z,21.98
2023-03-13T01:19:16.134Z,13.75
2023-03-13T01:21:44.666Z,15.93
2023-03-13T01:24:11.395Z,22.63
2023-03-13T01:26:37.999Z,17.10
2023-03-13T01:29:04.596Z,17.92
2023-03-13T01:31:34.031Z,19.83
2023-03-13T01:34:03.776Z,10.43
2023-03-13T01:36:30.894Z,13.90
2023-03-13T01:38:59.926Z,13.77
2023-03-13T01:41:28.529Z,16.30
2023-03-13T01:43:57.829Z,10.13
2023-03-13T01:46:27.672Z,11.65
2023-03-13T01:49:05.958Z,16.17
2023-03-13T01:51:40.177Z,9.85
2023-03-13T01:54:18.045Z,11.25
2023-03-13T01:56:54.165Z,11.18
2023-03-13T01:59:26.888Z,8.55
2023-03-13T02:01:57.392Z,12.15
2023-03-13T02:04:26.584Z,11.38
2023-03-13T02:06:58.295Z,6.07
2023-03-13T02:09:28.132Z,10.50
2023-03-13T02:12:04.631Z,6.90
2023-03-13T02:14:35.751Z,9.82
2023-03-13T02:17:03.513Z,9.98
2023-03-13T02:19:49.239Z,24.13
2023-03-13T02:22:27.820Z,21.23
2023-03-13T02:25:06.456Z,23.45
2023-03-13T02:27:33.013Z,24.75
2023-03-13T02:29:59.821Z,19.85
2023-03-13T02:32:29.583Z,23.20
2023-03-13T02:35:06.457Z,17.13
2023-03-13T02:37:33.536Z,21.00
2023-03-13T02:40:04.147Z,21.60
2023-03-13T02:42:31.548Z,17.17
2023-03-13T02:44:58.037Z,14.80
2023-03-13T02:47:26.436Z,11.57
2023-03-13T02:49:52.980Z,11.70
2023-03-13T02:52:38.849Z,17.35
2023-03-13T02:55:10.037Z,21.00
2023-03-13T02:57:36.539Z,13.07
2023-03-13T03:00:06.937Z,6.40
2023-03-13T03:02:33.420Z,6.22
2023-03-13T03:04:59.925Z,6.30
2023-03-13T03:07:26.416Z,4.32
2023-03-13T03:09:52.945Z,5.18
2023-03-13T03:12:19.422Z,5.47
2023-03-13T03:14:46.038Z,4.15
2023-03-13T03:17:16.709Z,4.18
2023-03-13T03:19:43.230Z,3.35
2023-03-13T03:22:09.770Z,4.43
2023-03-13T03:24:36.345Z,3.78
2023-03-13T03:27:02.838Z,4.07
2023-03-13T03:29:29.374Z,3.72
2023-03-13T03:31:56.223Z,3.15
2023-03-13T03:34:23.337Z,3.15
2023-03-13T03:36:56.173Z,3.70
2023-03-13T03:39:23.003Z,3.13
2023-03-13T03:41:49.546Z,3.40
2023-03-13T03:44:16.117Z,4.43
2023-03-13T03:46:42.664Z,3.50
2023-03-13T03:49:09.190Z,2.97
2023-03-13T03:51:35.733Z,3.38
2023-03-13T03:54:02.224Z,3.25
2023-03-13T03:56:28.774Z,4.30
2023-03-13T03:58:55.276Z,4.57
2023-03-13T04:01:21.813Z,4.47
2023-03-13T04:03:48.952Z,3.60
2023-03-13T04:06:15.647Z,3.97
2023-03-13T04:08:42.166Z,4.20
2023-03-13T04:11:08.689Z,6.03
2023-03-13T04:13:35.150Z,5.38
2023-03-13T04:16:07.231Z,4.55
2023-03-13T04:18:33.877Z,3.85
2023-03-13T04:21:02.476Z,5.05
2023-03-13T04:23:29.239Z,3.75
2023-03-13T04:25:55.718Z,4.72
2023-03-13T04:28:22.315Z,2.95
2023-03-13T04:30:48.851Z,4.18
2023-03-13T04:33:15.341Z,5.20
2023-03-13T04:35:41.948Z,3.47
2023-03-13T04:38:08.574Z,3.00
2023-03-13T04:40:35.103Z,3.55
2023-03-13T04:43:01.635Z,3.63
2023-03-13T04:45:28.128Z,3.55
2023-03-13T04:47:54.691Z,3.35
2023-03-13T04:50:21.205Z,5.90
2023-03-13T04:52:49.594Z,4.00
2023-03-13T04:55:16.497Z,5.78
2023-03-13T04:57:43.102Z,4.28
2023-03-13T05:00:11.586Z,2.92
2023-03-13T05:02:38.159Z,4.35
2023-03-13T05:05:05.014Z,3.08
2023-03-13T05:07:31.669Z,4.05
2023-03-13T05:09:58.199Z,4.28
2023-03-13T05:12:24.697Z,3.35
2023-03-13T05:14:51.260Z,3.42
2023-03-13T05:17:17.733Z,3.78
2023-03-13T05:19:44.243Z,2.40
2023-03-13T05:22:10.784Z,1.95
2023-03-13T05:24:38.063Z,2.13
2023-03-13T05:27:05.198Z,3.47
2023-03-13T05:29:31.815Z,3.28
2023-03-13T05:31:58.321Z,2.15
2023-03-13T05:34:24.900Z,4.88
2023-03-13T05:36:51.396Z,2.97
2023-03-13T05:39:17.994Z,2.85
2023-03-13T05:41:44.479Z,2.17
2023-03-13T05:44:11.212Z,2.10
2023-03-13T05:46:37.732Z,1.73
2023-03-13T05:49:04.289Z,3.58
2023-03-13T05:51:30.814Z,2.10
2023-03-13T05:53:57.287Z,2.25
2023-03-13T05:56:23.846Z,2.70
2023-03-13T05:58:50.367Z,2.25
2023-03-13T06:01:16.896Z,2.95
2023-03-13T06:03:43.578Z,3.40
2023-03-13T06:06:10.152Z,2.55
2023-03-13T06:08:36.668Z,2.50
2023-03-13T06:11:03.662Z,7.93
2023-03-13T06:13:30.189Z,2.15
2023-03-13T06:15:58.298Z,3.47
2023-03-13T06:18:25.850Z,4.50
2023-03-13T06:20:58.563Z,3.80
2023-03-13T06:23:25.436Z,4.30
2023-03-13T06:25:51.960Z,4.38
2023-03-13T06:28:18.477Z,3.65
2023-03-13T06:30:47.995Z,4.00
2023-03-13T06:33:15.021Z,6.32
2023-03-13T06:35:55.363Z,7.55
2023-03-13T06:38:22.767Z,12.73
2023-03-13T06:40:49.250Z,10.07
2023-03-13T06:43:15.710Z,7.60
2023-03-13T06:45:42.225Z,8.05
2023-03-13T06:48:08.710Z,5.53
2023-03-13T06:50:39.075Z,6.50
2023-03-13T06:53:05.942Z,5.43
2023-03-13T06:55:32.985Z,4.22
2023-03-13T06:57:59.556Z,4.80
2023-03-13T07:00:26.152Z,3.83
2023-03-13T07:02:52.680Z,5.97
2023-03-13T07:05:19.258Z,5.82
2023-03-13T07:07:45.742Z,8.80
2023-03-13T07:10:12.269Z,12.25
2023-03-13T07:12:38.798Z,9.32
2023-03-13T07:15:06.392Z,9.18
2023-03-13T07:17:32.996Z,8.45
2023-03-13T07:19:59.577Z,6.05
2023-03-13T07:22:26.115Z,5.82
2023-03-13T07:24:52.701Z,5.43
2023-03-13T07:27:21.205Z,5.25
2023-03-13T07:29:48.020Z,6.53
2023-03-13T07:32:14.821Z,5.45
2023-03-13T07:34:44.593Z,4.57
2023-03-13T07:37:15.948Z,4.95
2023-03-13T07:39:43.766Z,5.18
2023-03-13T07:42:11.956Z,5.85
2023-03-13T07:44:38.625Z,5.18
2023-03-13T07:47:05.517Z,4.55
2023-03-13T07:49:32.136Z,4.88
2023-03-13T07:51:58.636Z,7.05
2023-03-13T07:54:25.172Z,5.70
2023-03-13T07:56:51.697Z,6.22
2023-03-13T07:59:18.239Z,7.97
2023-03-13T08:01:44.761Z,8.48
2023-03-13T08:04:14.521Z,2.63
2023-03-13T08:06:42.031Z,1.75
2023-03-13T08:09:09.121Z,1.73
2023-03-13T08:11:36.345Z,1.23
2023-03-13T08:14:03.043Z,2.17
2023-03-13T08:16:34.134Z,1.60
2023-03-13T08:19:01.918Z,4.28
2023-03-13T08:21:31.161Z,1.98
2023-03-13T08:24:00.232Z,1.60
2023-03-13T08:26:30.867Z,1.52
2023-03-13T08:29:03.282Z,2.25
2023-03-13T08:31:32.850Z,1.55
2023-03-13T08:34:00.202Z,0.98
2023-03-13T08:36:37.600Z,2.55
2023-03-13T08:39:07.640Z,1.35
2023-03-13T08:41:36.655Z,2.13
2023-03-13T08:44:07.292Z,1.30
2023-03-13T08:46:36.010Z,1.60
2023-03-13T08:49:04.318Z,1.50
2023-03-13T08:51:34.146Z,1.23
2023-03-13T08:54:01.484Z,2.78
2023-03-13T08:56:32.978Z,2.70
2023-03-13T08:59:02.171Z,2.40
2023-03-13T09:01:31.623Z,1.20
2023-03-13T09:04:00.650Z,2.25
2023-03-13T09:06:29.500Z,0.93
2023-03-13T09:08:58.213Z,3.50
2023-03-13T09:11:25.240Z,2.28
2023-03-13T09:13:51.947Z,2.80
2023-03-13T09:16:23.730Z,1.52
2023-03-13T09:18:51.830Z,1.13
2023-03-13T09:21:26.733Z,3.30
2023-03-13T09:23:53.781Z,1.38
2023-03-13T09:26:23.037Z,1.30
2023-03-13T09:28:51.229Z,1.33
2023-03-13T09:31:23.798Z,1.88
2023-03-13T09:33:51.266Z,2.00
2023-03-13T09:36:21.778Z,1.90
2023-03-13T09:38:50.195Z,1.95
2023-03-13T09:41:18.117Z,2.78
2023-03-13T09:43:50.878Z,3.90
2023-03-13T09:46:33.918Z,7.38
2023-03-13T09:49:05.347Z,4.03
2023-03-13T09:51:42.850Z,4.70
2023-03-13T09:54:32.338Z,6.05
2023-03-13T09:57:20.266Z,2.88
2023-03-13T09:59:57.572Z,1.73
2023-03-13T10:02:30.347Z,1.45
2023-03-13T10:05:19.887Z,3.47
2023-03-13T10:07:46.604Z,3.97
2023-03-13T10:10:41.352Z,4.38
2023-03-13T10:13:43.376Z,4.07
2023-03-13T10:16:13.246Z,1.52
2023-03-13T10:18:44.320Z,1.23
2023-03-13T10:21:18.906Z,1.02
2023-03-13T10:24:07.657Z,2.50
2023-03-13T10:26:37.034Z,1.95
2023-03-13T10:29:23.545Z,1.58
2023-03-13T10:32:04.615Z,1.77
2023-03-13T10:34:58.946Z,1.40
2023-03-13T10:37:30.921Z,0.80
2023-03-13T10:40:28.255Z,1.05
2023-03-13T10:43:02.073Z,0.70
2023-03-13T10:45:34.586Z,3.28
2023-03-13T10:48:10.431Z,2.05
2023-03-13T10:50:37.287Z,0.60
2023-03-13T10:53:23.060Z,1.63
2023-03-13T10:55:53.344Z,0.88
2023-03-13T10:58:41.304Z,0.60
2023-03-13T11:01:22.927Z,1.05
2023-03-13T11:03:52.075Z,0.50
2023-03-13T11:06:28.904Z,1.25
2023-03-13T11:09:01.856Z,0.50
2023-03-13T11:11:30.979Z,0.88
2023-03-13T11:14:14.726Z,0.47
2023-03-13T11:16:55.281Z,1.23
2023-03-13T11:20:00.775Z,1.20
2023-03-13T11:22:39.428Z,0.82
2023-03-13T11:25:18.039Z,1.33
2023-03-13T11:28:14.607Z,0.47
2023-03-13T11:30:48.509Z,1.75
2023-03-13T11:33:17.239Z,0.65
2023-03-13T11:35:49.895Z,0.70
2023-03-13T11:38:37.365Z,0.35
2023-03-13T11:41:06.830Z,1.10
2023-03-13T11:43:48.272Z,0.60
2023-03-13T11:46:32.481Z,0.60
2023-03-13T11:49:20.899Z,1.95
2023-03-13T11:52:09.775Z,0.55
2023-03-13T11:54:59.123Z,0.50
2023-03-13T11:57:32.829Z,1.15
2023-03-13T12:00:14.295Z,1.08
2023-03-13T12:02:51.469Z,1.77
2023-03-13T12:05:20.989Z,1.38
2023-03-13T12:07:53.685Z,0.80
2023-03-13T12:10:46.146Z,2.65
2023-03-13T12:13:22.295Z,0.60
2023-03-13T12:15:54.271Z,0.45
2023-03-13T12:18:30.415Z,0.93
2023-03-13T12:21:06.500Z,0.60
2023-03-13T12:23:39.442Z,0.45
2023-03-13T12:26:27.893Z,1.00
2023-03-13T12:40:02.684Z,0.60
2023-03-13T12:42:35.131Z,0.82
2023-03-13T12:45:02.191Z,0.82
2023-03-13T12:48:03.579Z,1.20
2023-03-13T12:51:01.463Z,0.75
2023-03-13T12:53:37.207Z,1.05
2023-03-13T12:56:26.157Z,1.25
2023-03-13T12:59:10.911Z,1.00
2023-03-13T13:01:44.251Z,0.65
2023-03-13T13:04:23.816Z,4.00
2023-03-13T13:06:55.830Z,0.68
2023-03-13T13:09:28.591Z,0.30
2023-03-13T13:12:16.516Z,0.32
2023-03-13T13:14:49.081Z,0.93
2023-03-13T13:17:40.614Z,0.40
2023-03-13T13:20:30.507Z,1.40
2023-03-13T13:23:16.197Z,0.70
2023-03-13T13:25:42.720Z,1.05
2023-03-13T13:28:26.392Z,1.95
2023-03-13T13:30:56.139Z,0.85
2023-03-13T13:33:35.661Z,1.60
2023-03-13T13:38:50.236Z,0.73
2023-03-13T13:41:16.748Z,0.47
2023-03-13T13:43:48.174Z,1.10
2023-03-13T13:46:33.150Z,0.77
2023-03-13T13:49:05.915Z,0.60
2023-03-13T13:51:39.463Z,0.47
2023-03-13T13:54:46.170Z,0.82
2023-03-13T13:57:16.239Z,0.90
2023-03-13T13:59:44.740Z,0.32
2023-03-13T14:02:21.209Z,0.57
2023-03-13T14:05:05.083Z,0.28
2023-03-13T14:07:44.660Z,1.10
2023-03-13T14:10:31.896Z,0.10
2023-03-13T14:13:01.021Z,0.30
2023-03-13T14:18:08.956Z,0.73
2023-03-13T14:20:57.408Z,0.20
2023-03-13T14:23:42.728Z,0.75
2023-03-13T14:26:12.199Z,0.20
2023-03-13T14:31:07.262Z,0.43
2023-03-13T14:33:34.780Z,0.73
2023-03-13T14:36:02.266Z,0.57
2023-03-13T14:38:38.527Z,0.50
2023-03-13T14:41:05.166Z,0.25
2023-03-13T14:43:42.461Z,2.83
2023-03-13T14:46:19.136Z,0.50
2023-03-13T14:48:45.913Z,0.90
2023-03-13T14:51:22.051Z,0.80
2023-03-13T14:54:04.880Z,0.50
2023-03-13T14:56:42.336Z,0.70
2023-03-13T14:59:15.151Z,2.47
2023-03-13T15:01:41.795Z,0.57
2023-03-13T15:04:08.461Z,6.18
2023-03-13T15:06:35.028Z,1.95
2023-03-13T15:09:14.317Z,0.45
2023-03-13T15:12:00.346Z,1.00
2023-03-13T15:14:36.766Z,1.38
2023-03-13T15:17:06.717Z,0.77
2023-03-13T15:21:59.769Z,2.17
2023-03-13T15:24:26.280Z,3.72
2023-03-13T15:26:52.731Z,0.77
2023-03-13T15:29:20.160Z,0.40
2023-03-13T15:31:46.691Z,1.23
2023-03-13T15:34:14.907Z,2.15
2023-03-13T15:36:42.499Z,0.80
2023-03-13T15:39:15.870Z,1.88
2023-03-13T15:41:42.902Z,0.80
2023-03-13T15:44:09.418Z,0.85
2023-03-13T15:46:36.120Z,1.42
2023-03-13T15:49:02.895Z,0.70
2023-03-13T15:51:29.613Z,0.63
2023-03-13T15:53:56.433Z,0.52
2023-03-13T15:56:23.330Z,0.98
2023-03-13T15:58:51.177Z,1.00
2023-03-13T16:01:18.974Z,1.50
2023-03-13T16:03:45.675Z,1.02
2023-03-13T16:06:18.970Z,0.73
2023-03-13T16:08:45.798Z,1.65
2023-03-13T16:11:16.976Z,0.30
2023-03-13T16:13:43.781Z,0.85
2023-03-13T16:16:23.097Z,0.45
2023-03-13T16:18:50.912Z,1.33
2023-03-13T16:21:29.266Z,0.40
2023-03-13T16:23:55.935Z,2.05
2023-03-13T16:26:26.161Z,2.97
2023-03-13T16:28:53.871Z,1.48
2023-03-13T16:31:21.769Z,0.98
2023-03-13T16:33:52.275Z,0.50
2023-03-13T16:36:28.140Z,1.20
2023-03-13T16:38:54.814Z,0.50
2023-03-13T16:41:23.487Z,1.95
2023-03-13T16:43:50.920Z,1.60
2023-03-13T16:46:32.715Z,1.00
2023-03-13T16:48:59.816Z,1.20
2023-03-13T16:51:27.410Z,0.95
2023-03-13T16:53:56.225Z,1.55
2023-03-13T16:56:31.787Z,0.30
2023-03-13T16:58:58.548Z,1.05
2023-03-13T17:01:26.021Z,1.58
2023-03-13T17:03:53.052Z,0.50
2023-03-13T17:06:22.755Z,0.30
2023-03-13T17:08:49.854Z,1.95
2023-03-13T17:11:19.258Z,0.63
2023-03-13T17:13:48.484Z,0.75
2023-03-13T17:16:21.750Z,0.93
2023-03-13T17:18:51.632Z,0.88
2023-03-13T17:21:23.640Z,1.48
2023-03-13T17:23:50.600Z,0.80
2023-03-13T17:26:34.104Z,1.25
2023-03-13T17:29:01.226Z,2.05
2023-03-13T17:31:28.902Z,0.70
2023-03-13T17:33:55.509Z,1.77
2023-03-13T17:36:24.809Z,0.80
2023-03-13T17:38:53.895Z,1.98
2023-03-13T17:41:23.726Z,1.23
2023-03-13T17:43:50.256Z,1.02
2023-03-13T17:46:22.550Z,1.08
2023-03-13T17:48:52.145Z,1.40
2023-03-13T17:51:21.782Z,1.23
2023-03-13T17:53:49.123Z,1.30
2023-03-13T17:56:17.254Z,1.30
2023-03-13T17:58:43.932Z,1.17
2023-03-13T18:01:13.408Z,1.95
2023-03-13T18:03:40.443Z,1.23
2023-03-13T18:06:45.037Z,1.50
2023-03-13T18:09:20.725Z,1.52
2023-03-13T18:11:48.592Z,3.35
2023-03-13T18:14:15.443Z,2.50
2023-03-13T18:16:50.545Z,3.97
2023-03-13T18:19:23.029Z,3.25
2023-03-13T18:21:51.883Z,2.78
2023-03-13T18:24:18.744Z,3.65
2023-03-13T18:26:46.560Z,2.78
2023-03-13T18:29:16.448Z,4.15
2023-03-13T18:31:43.790Z,3.20
2023-03-13T18:34:11.675Z,1.83
2023-03-13T18:36:39.226Z,2.28
2023-03-13T18:39:10.735Z,6.82
2023-03-13T18:41:37.203Z,2.70
2023-03-13T18:44:03.802Z,1.58
2023-03-13T18:46:31.873Z,1.08
2023-03-13T18:48:59.074Z,3.13
2023-03-13T18:51:27.278Z,2.30
2023-03-13T18:53:55.189Z,4.25
2023-03-13T18:56:28.406Z,1.63
2023-03-13T18:58:55.956Z,1.40
2023-03-13T19:01:25.021Z,3.60
2023-03-13T19:03:52.343Z,1.90
2023-03-13T19:06:30.087Z,3.28
2023-03-13T19:08:59.176Z,2.47
2023-03-13T19:11:31.191Z,2.03
2023-03-13T19:13:58.097Z,2.50
2023-03-13T19:16:31.998Z,2.33
2023-03-13T19:18:58.764Z,2.05
2023-03-13T19:21:27.527Z,3.08
2023-03-13T19:23:54.927Z,1.98
2023-03-13T19:26:33.375Z,1.77
2023-03-13T19:28:59.924Z,2.40
2023-03-13T19:31:27.163Z,3.70
2023-03-13T19:33:54.392Z,4.00
2023-03-13T19:36:24.846Z,7.95
2023-03-13T19:38:51.392Z,7.50
2023-03-13T19:41:18.091Z,6.43
2023-03-13T19:43:45.558Z,11.50
2023-03-13T19:46:27.090Z,12.07
2023-03-13T19:48:56.066Z,7.38
2023-03-13T19:51:24.150Z,4.20
2023-03-13T19:53:51.079Z,4.07
2023-03-13T19:56:17.578Z,4.03
2023-03-13T19:58:45.862Z,5.13
2023-03-13T20:01:17.447Z,5.55
2023-03-13T20:03:45.874Z,4.57
2023-03-13T20:06:18.791Z,5.30
2023-03-13T20:08:46.405Z,5.90
2023-03-13T20:11:14.539Z,4.57
2023-03-13T20:13:42.146Z,4.68
2023-03-13T20:16:10.910Z,4.43
2023-03-13T20:18:38.611Z,3.67
2023-03-13T20:21:05.876Z,5.65
2023-03-13T20:23:32.980Z,5.20
2023-03-13T20:26:04.846Z,18.30
2023-03-13T20:28:31.392Z,24.05
2023-03-13T20:30:57.938Z,18.88
2023-03-13T20:33:24.676Z,14.93
2023-03-13T20:35:51.201Z,11.07
2023-03-13T20:38:17.745Z,10.88
2023-03-13T20:40:51.572Z,7.85
2023-03-13T20:43:18.090Z,30.33
2023-03-13T20:45:45.025Z,21.20
2023-03-13T20:48:11.950Z,11.13
2023-03-13T20:50:38.554Z,14.38
2023-03-13T20:53:05.160Z,11.55
2023-03-13T20:55:32.739Z,9.48
2023-03-13T20:57:59.912Z,10.75
2023-03-13T21:00:26.520Z,7.75
2023-03-13T21:02:54.306Z,8.38
2023-03-13T21:05:20.856Z,8.20
2023-03-13T21:07:47.933Z,8.43
2023-03-13T21:10:15.011Z,10.23
2023-03-13T21:12:41.566Z,12.27
2023-03-13T21:15:08.996Z,13.90
2023-03-13T21:17:36.565Z,10.45
2023-03-13T21:20:10.770Z,7.22
2023-03-13T21:22:42.047Z,8.98
2023-03-13T21:25:10.425Z,15.13
2023-03-13T21:27:37.438Z,18.40
2023-03-13T21:30:06.466Z,60.33
2023-03-13T21:32:36.924Z,31.63
2023-03-13T21:35:04.457Z,26.20
2023-03-13T21:37:31.544Z,8.10
2023-03-13T21:39:58.071Z,11.25
2023-03-13T21:42:24.653Z,10.65
2023-03-13T21:44:51.184Z,10.63
2023-03-13T21:47:24.123Z,12.05
2023-03-13T21:49:55.099Z,11.90
2023-03-13T21:52:23.050Z,15.98
2023-03-13T21:54:49.780Z,29.70
2023-03-13T21:57:16.406Z,30.92
2023-03-13T21:59:43.268Z,21.98
2023-03-13T22:02:13.810Z,13.90
2023-03-13T22:04:40.521Z,12.98
2023-03-13T22:07:07.402Z,11.60
2023-03-13T22:09:33.987Z,14.40
2023-03-13T22:12:00.455Z,16.38
2023-03-13T22:14:28.028Z,20.70
2023-03-13T22:16:54.932Z,20.25
2023-03-13T22:19:21.430Z,22.50
2023-03-13T22:21:47.968Z,20.83
2023-03-13T22:24:14.569Z,26.73
2023-03-13T22:26:41.151Z,21.10
2023-03-13T22:29:07.639Z,17.13
2023-03-13T22:31:34.149Z,15.43
2023-03-13T22:34:00.626Z,18.50
2023-03-13T22:36:27.107Z,15.18
2023-03-13T22:38:53.621Z,19.70
2023-03-13T22:41:20.429Z,20.05
2023-03-13T22:43:46.967Z,12.68
2023-03-13T22:46:14.042Z,11.60
2023-03-13T22:48:40.698Z,13.77
2023-03-13T22:51:09.746Z,13.70
2023-03-13T22:53:38.978Z,11.63
2023-03-13T22:56:06.887Z,14.13
2023-03-13T22:58:34.124Z,11.93
2023-03-13T23:01:00.725Z,8.70
2023-03-13T23:03:27.224Z,12.05
2023-03-13T23:05:53.723Z,8.57
2023-03-13T23:08:20.232Z,10.40
2023-03-13T23:10:47.880Z,13.10
2023-03-13T23:13:15.086Z,9.35
2023-03-13T23:15:57.416Z,8.80
2023-03-13T23:18:25.807Z,4.95
2023-03-13T23:20:52.799Z,4.13
2023-03-13T23:23:19.754Z,3.90
2023-03-13T23:25:46.370Z,4.93
2023-03-13T23:28:13.188Z,3.78
2023-03-13T23:30:39.810Z,4.38
2023-03-13T23:33:06.333Z,3.47
2023-03-13T23:35:35.972Z,3.35
2023-03-13T23:38:02.487Z,3.80
2023-03-13T23:40:29.018Z,6.88
2023-03-13T23:42:55.654Z,5.47
2023-03-13T23:45:22.181Z,7.32
2023-03-13T23:47:48.724Z,4.65
2023-03-13T23:50:16.158Z,5.72
2023-03-13T23:52:43.033Z,6.30
2023-03-13T23:55:10.239Z,3.78
2023-03-13T23:57:39.911Z,4.93
